sensor_id;sensor_type;location;lat;lon;timestamp;temperature;humidity
5334;DHT22;2689;50.954;7.116;2023-05-07T00:01:31;14.60;99.90
5334;DHT22;2689;50.954;7.116;2023-05-07T00:03:57;14.60;99.90
5334;DHT22;2689;50.954;7.116;2023-05-07T00:06:24;14.60;99.90
5334;DHT22;2689;50.954;7.116;2023-05-07T00:08:52;14.60;99.90
5334;DHT22;2689;50.954;7.116;2023-05-07T00:11:18;14.60;99.90
5334;DHT22;2689;50.954;7.116;2023-05-07T00:13:47;14.70;99.90
5334;DHT22;2689;50.954;7.116;2023-05-07T00:16:15;14.70;99.90
5334;DHT22;2689;50.954;7.116;2023-05-07T00:18:42;14.70;99.90
5334;DHT22;2689;50.954;7.116;2023-05-07T00:21:08;14.70;99.90
5334;DHT22;2689;50.954;7.116;2023-05-07T00:23:35;14.70;99.90
5334;DHT22;2689;50.954;7.116;2023-05-07T00:26:02;14.80;99.90
5334;DHT22;2689;50.954;7.116;2023-05-07T00:28:29;14.70;99.90
5334;DHT22;2689;50.954;7.116;2023-05-07T00:30:55;14.70;99.90
5334;DHT22;2689;50.954;7.116;2023-05-07T00:33:23;14.70;99.90
5334;DHT22;2689;50.954;7.116;2023-05-07T00:35:52;14.80;99.90
5334;DHT22;2689;50.954;7.116;2023-05-07T00:38:19;14.70;99.90
5334;DHT22;2689;50.954;7.116;2023-05-07T00:40:48;15.80;99.90
5334;DHT22;2689;50.954;7.116;2023-05-07T00:43:16;14.80;99.90
5334;DHT22;2689;50.954;7.116;2023-05-07T00:45:43;14.80;99.90
5334;DHT22;2689;50.954;7.116;2023-05-07T00:48:10;14.80;99.90
5334;DHT22;2689;50.954;7.116;2023-05-07T00:50:38;14.70;99.90
5334;DHT22;2689;50.954;7.116;2023-05-07T00:53:06;14.80;99.90
5334;DHT22;2689;50.954;7.116;2023-05-07T00:55:34;14.70;99.90
5334;DHT22;2689;50.954;7.116;2023-05-07T00:58:04;14.70;99.90
5334;DHT22;2689;50.954;7.116;2023-05-07T01:00:31;15.20;99.90
5334;DHT22;2689;50.954;7.116;2023-05-07T01:02:58;14.70;99.90
5334;DHT22;2689;50.954;7.116;2023-05-07T01:05:26;14.60;99.90
5334;DHT22;2689;50.954;7.116;2023-05-07T01:07:55;14.50;99.90
5334;DHT22;2689;50.954;7.116;2023-05-07T01:10:23;14.70;99.90
5334;DHT22;2689;50.954;7.116;2023-05-07T01:12:51;14.60;99.90
5334;DHT22;2689;50.954;7.116;2023-05-07T01:15:18;14.70;99.90
5334;DHT22;2689;50.954;7.116;2023-05-07T01:17:48;14.60;99.90
5334;DHT22;2689;50.954;7.116;2023-05-07T01:20:18;14.60;99.90
5334;DHT22;2689;50.954;7.116;2023-05-07T01:22:46;15.00;99.90
5334;DHT22;2689;50.954;7.116;2023-05-07T01:25:13;14.60;99.90
5334;DHT22;2689;50.954;7.116;2023-05-07T01:27:41;14.60;99.90
5334;DHT22;2689;50.954;7.116;2023-05-07T01:30:08;14.60;99.90
5334;DHT22;2689;50.954;7.116;2023-05-07T01:32:40;14.60;99.90
5334;DHT22;2689;50.954;7.116;2023-05-07T01:35:15;14.60;99.90
5334;DHT22;2689;50.954;7.116;2023-05-07T01:37:49;14.70;99.90
5334;DHT22;2689;50.954;7.116;2023-05-07T01:40:16;14.60;99.90
5334;DHT22;2689;50.954;7.116;2023-05-07T01:42:44;14.60;99.90
5334;DHT22;2689;50.954;7.116;2023-05-07T01:45:11;14.70;99.90
5334;DHT22;2689;50.954;7.116;2023-05-07T01:47:39;14.70;99.90
5334;DHT22;2689;50.954;7.116;2023-05-07T01:50:07;14.70;99.90
5334;DHT22;2689;50.954;7.116;2023-05-07T01:52:36;14.70;99.90
5334;DHT22;2689;50.954;7.116;2023-05-07T01:55:07;14.80;99.90
5334;DHT22;2689;50.954;7.116;2023-05-07T01:57:33;14.80;99.90
5334;DHT22;2689;50.954;7.116;2023-05-07T02:00:00;14.80;99.90
5334;DHT22;2689;50.954;7.116;2023-05-07T02:02:28;14.90;99.90
5334;DHT22;2689;50.954;7.116;2023-05-07T02:04:55;16.10;99.90
5334;DHT22;2689;50.954;7.116;2023-05-07T02:07:21;14.80;99.90
5334;DHT22;2689;50.954;7.116;2023-05-07T02:09:48;14.80;99.90
5334;DHT22;2689;50.954;7.116;2023-05-07T02:12:18;14.80;99.90
5334;DHT22;2689;50.954;7.116;2023-05-07T02:14:45;14.80;99.90
5334;DHT22;2689;50.954;7.116;2023-05-07T02:17:12;14.70;99.90
5334;DHT22;2689;50.954;7.116;2023-05-07T02:19:39;14.80;99.90
5334;DHT22;2689;50.954;7.116;2023-05-07T02:22:05;14.90;99.90
5334;DHT22;2689;50.954;7.116;2023-05-07T02:24:32;14.70;99.90
5334;DHT22;2689;50.954;7.116;2023-05-07T02:26:59;14.70;99.90
5334;DHT22;2689;50.954;7.116;2023-05-07T02:29:27;14.60;99.90
5334;DHT22;2689;50.954;7.116;2023-05-07T02:31:53;14.60;99.90
5334;DHT22;2689;50.954;7.116;2023-05-07T02:34:21;14.60;99.90
5334;DHT22;2689;50.954;7.116;2023-05-07T02:36:47;14.50;99.90
5334;DHT22;2689;50.954;7.116;2023-05-07T02:39:14;14.60;99.90
5334;DHT22;2689;50.954;7.116;2023-05-07T02:41:44;14.60;99.90
5334;DHT22;2689;50.954;7.116;2023-05-07T02:44:10;14.60;99.90
5334;DHT22;2689;50.954;7.116;2023-05-07T02:46:39;14.50;99.90
5334;DHT22;2689;50.954;7.116;2023-05-07T02:49:05;14.50;99.90
5334;DHT22;2689;50.954;7.116;2023-05-07T02:51:32;14.50;99.90
5334;DHT22;2689;50.954;7.116;2023-05-07T02:53:59;14.40;99.90
5334;DHT22;2689;50.954;7.116;2023-05-07T02:56:26;14.40;99.90
5334;DHT22;2689;50.954;7.116;2023-05-07T02:58:56;14.40;99.90
5334;DHT22;2689;50.954;7.116;2023-05-07T03:01:23;14.40;99.90
5334;DHT22;2689;50.954;7.116;2023-05-07T03:03:51;14.40;99.90
5334;DHT22;2689;50.954;7.116;2023-05-07T03:06:17;14.40;99.90
5334;DHT22;2689;50.954;7.116;2023-05-07T03:08:44;14.30;99.90
5334;DHT22;2689;50.954;7.116;2023-05-07T03:11:18;14.30;99.90
5334;DHT22;2689;50.954;7.116;2023-05-07T03:13:45;14.30;99.90
5334;DHT22;2689;50.954;7.116;2023-05-07T03:16:14;14.30;99.90
5334;DHT22;2689;50.954;7.116;2023-05-07T03:18:41;14.20;99.90
5334;DHT22;2689;50.954;7.116;2023-05-07T03:21:09;14.20;99.90
5334;DHT22;2689;50.954;7.116;2023-05-07T03:23:36;14.20;99.90
5334;DHT22;2689;50.954;7.116;2023-05-07T03:26:05;14.20;99.90
5334;DHT22;2689;50.954;7.116;2023-05-07T03:28:32;14.20;99.90
5334;DHT22;2689;50.954;7.116;2023-05-07T03:30:58;14.20;99.90
5334;DHT22;2689;50.954;7.116;2023-05-07T03:33:33;14.10;99.90
5334;DHT22;2689;50.954;7.116;2023-05-07T03:36:00;14.10;99.90
5334;DHT22;2689;50.954;7.116;2023-05-07T03:38:28;14.10;99.90
5334;DHT22;2689;50.954;7.116;2023-05-07T03:40:55;14.10;99.90
5334;DHT22;2689;50.954;7.116;2023-05-07T03:43:22;14.10;99.90
5334;DHT22;2689;50.954;7.116;2023-05-07T03:45:48;14.10;99.90
5334;DHT22;2689;50.954;7.116;2023-05-07T03:48:15;14.10;99.90
5334;DHT22;2689;50.954;7.116;2023-05-07T03:50:42;14.10;99.90
5334;DHT22;2689;50.954;7.116;2023-05-07T03:53:08;14.10;99.90
5334;DHT22;2689;50.954;7.116;2023-05-07T03:55:36;14.00;99.90
5334;DHT22;2689;50.954;7.116;2023-05-07T03:58:04;14.00;99.90
5334;DHT22;2689;50.954;7.116;2023-05-07T04:00:31;14.00;99.90
5334;DHT22;2689;50.954;7.116;2023-05-07T04:02:59;14.00;99.90
5334;DHT22;2689;50.954;7.116;2023-05-07T04:05:26;14.00;99.90
5334;DHT22;2689;50.954;7.116;2023-05-07T04:07:53;14.00;99.90
5334;DHT22;2689;50.954;7.116;2023-05-07T04:10:19;14.00;99.90
5334;DHT22;2689;50.954;7.116;2023-05-07T04:12:47;14.00;99.90
5334;DHT22;2689;50.954;7.116;2023-05-07T04:15:14;13.80;99.90
5334;DHT22;2689;50.954;7.116;2023-05-07T04:17:43;13.90;99.90
5334;DHT22;2689;50.954;7.116;2023-05-07T04:20:14;13.90;99.90
5334;DHT22;2689;50.954;7.116;2023-05-07T04:22:41;14.00;99.90
5334;DHT22;2689;50.954;7.116;2023-05-07T04:25:09;14.10;99.90
5334;DHT22;2689;50.954;7.116;2023-05-07T04:27:36;14.10;99.90
5334;DHT22;2689;50.954;7.116;2023-05-07T04:30:07;14.10;99.90
5334;DHT22;2689;50.954;7.116;2023-05-07T04:32:34;14.20;99.90
5334;DHT22;2689;50.954;7.116;2023-05-07T04:35:01;14.20;99.90
5334;DHT22;2689;50.954;7.116;2023-05-07T04:37:28;14.20;99.90
5334;DHT22;2689;50.954;7.116;2023-05-07T04:39:55;14.20;99.90
5334;DHT22;2689;50.954;7.116;2023-05-07T04:42:21;14.30;99.90
5334;DHT22;2689;50.954;7.116;2023-05-07T04:44:52;14.60;99.90
5334;DHT22;2689;50.954;7.116;2023-05-07T04:47:23;14.30;99.90
5334;DHT22;2689;50.954;7.116;2023-05-07T04:49:53;14.40;99.90
5334;DHT22;2689;50.954;7.116;2023-05-07T04:52:20;14.40;99.90
5334;DHT22;2689;50.954;7.116;2023-05-07T04:54:47;14.30;99.90
5334;DHT22;2689;50.954;7.116;2023-05-07T04:57:13;14.40;99.90
5334;DHT22;2689;50.954;7.116;2023-05-07T04:59:40;14.50;99.90
5334;DHT22;2689;50.954;7.116;2023-05-07T05:02:09;14.50;99.90
5334;DHT22;2689;50.954;7.116;2023-05-07T05:04:37;14.60;99.90
5334;DHT22;2689;50.954;7.116;2023-05-07T05:07:04;14.60;99.90
5334;DHT22;2689;50.954;7.116;2023-05-07T05:09:31;14.80;99.90
5334;DHT22;2689;50.954;7.116;2023-05-07T05:11:58;14.70;99.90
5334;DHT22;2689;50.954;7.116;2023-05-07T05:14:25;14.80;99.90
5334;DHT22;2689;50.954;7.116;2023-05-07T05:16:52;14.80;99.90
5334;DHT22;2689;50.954;7.116;2023-05-07T05:19:18;14.90;99.90
5334;DHT22;2689;50.954;7.116;2023-05-07T05:21:46;14.90;99.90
5334;DHT22;2689;50.954;7.116;2023-05-07T05:24:13;15.00;99.90
5334;DHT22;2689;50.954;7.116;2023-05-07T05:26:40;15.10;99.90
5334;DHT22;2689;50.954;7.116;2023-05-07T05:29:07;15.20;99.90
5334;DHT22;2689;50.954;7.116;2023-05-07T05:31:33;15.20;99.90
5334;DHT22;2689;50.954;7.116;2023-05-07T05:34:00;15.30;99.90
5334;DHT22;2689;50.954;7.116;2023-05-07T05:36:29;15.40;99.90
5334;DHT22;2689;50.954;7.116;2023-05-07T05:38:58;15.50;99.90
5334;DHT22;2689;50.954;7.116;2023-05-07T05:41:25;15.50;99.90
5334;DHT22;2689;50.954;7.116;2023-05-07T05:43:51;15.60;99.90
5334;DHT22;2689;50.954;7.116;2023-05-07T05:46:18;15.70;99.90
5334;DHT22;2689;50.954;7.116;2023-05-07T05:48:45;15.70;99.90
5334;DHT22;2689;50.954;7.116;2023-05-07T05:51:12;16.60;99.90
5334;DHT22;2689;50.954;7.116;2023-05-07T05:53:39;15.90;99.90
5334;DHT22;2689;50.954;7.116;2023-05-07T05:56:07;17.40;99.90
5334;DHT22;2689;50.954;7.116;2023-05-07T05:58:34;16.20;99.90
5334;DHT22;2689;50.954;7.116;2023-05-07T06:01:01;16.20;99.90
5334;DHT22;2689;50.954;7.116;2023-05-07T06:03:29;17.30;99.90
5334;DHT22;2689;50.954;7.116;2023-05-07T06:05:55;16.10;99.90
5334;DHT22;2689;50.954;7.116;2023-05-07T06:08:22;17.20;99.90
5334;DHT22;2689;50.954;7.116;2023-05-07T06:10:49;17.20;99.90
5334;DHT22;2689;50.954;7.116;2023-05-07T06:13:18;16.20;99.90
5334;DHT22;2689;50.954;7.116;2023-05-07T06:15:45;16.30;99.90
5334;DHT22;2689;50.954;7.116;2023-05-07T06:18:11;16.40;99.90
5334;DHT22;2689;50.954;7.116;2023-05-07T06:20:38;16.40;99.90
5334;DHT22;2689;50.954;7.116;2023-05-07T06:23:05;16.50;99.90
5334;DHT22;2689;50.954;7.116;2023-05-07T06:25:32;16.60;99.90
5334;DHT22;2689;50.954;7.116;2023-05-07T06:27:58;16.70;99.90
5334;DHT22;2689;50.954;7.116;2023-05-07T06:30:26;16.80;99.90
5334;DHT22;2689;50.954;7.116;2023-05-07T06:32:53;16.90;99.90
5334;DHT22;2689;50.954;7.116;2023-05-07T06:35:20;17.50;99.90
5334;DHT22;2689;50.954;7.116;2023-05-07T06:37:47;17.10;99.90
5334;DHT22;2689;50.954;7.116;2023-05-07T06:40:13;17.10;99.90
5334;DHT22;2689;50.954;7.116;2023-05-07T06:42:41;17.80;99.90
5334;DHT22;2689;50.954;7.116;2023-05-07T06:45:08;18.20;99.90
5334;DHT22;2689;50.954;7.116;2023-05-07T06:47:39;17.40;99.90
5334;DHT22;2689;50.954;7.116;2023-05-07T06:50:07;17.70;99.90
5334;DHT22;2689;50.954;7.116;2023-05-07T06:52:36;17.60;99.90
5334;DHT22;2689;50.954;7.116;2023-05-07T06:55:04;17.80;99.90
5334;DHT22;2689;50.954;7.116;2023-05-07T06:57:30;17.90;99.90
5334;DHT22;2689;50.954;7.116;2023-05-07T06:59:57;17.90;99.90
5334;DHT22;2689;50.954;7.116;2023-05-07T07:02:24;18.10;99.90
5334;DHT22;2689;50.954;7.116;2023-05-07T07:04:52;18.20;99.90
5334;DHT22;2689;50.954;7.116;2023-05-07T07:07:19;18.30;99.90
5334;DHT22;2689;50.954;7.116;2023-05-07T07:09:46;18.40;99.90
5334;DHT22;2689;50.954;7.116;2023-05-07T07:12:12;18.50;99.90
5334;DHT22;2689;50.954;7.116;2023-05-07T07:14:39;18.70;99.90
5334;DHT22;2689;50.954;7.116;2023-05-07T07:17:06;18.80;99.90
5334;DHT22;2689;50.954;7.116;2023-05-07T07:19:32;18.90;99.90
5334;DHT22;2689;50.954;7.116;2023-05-07T07:22:02;19.10;99.90
5334;DHT22;2689;50.954;7.116;2023-05-07T07:24:28;19.50;99.90
5334;DHT22;2689;50.954;7.116;2023-05-07T07:26:55;19.70;99.90
5334;DHT22;2689;50.954;7.116;2023-05-07T07:29:22;20.10;99.90
5334;DHT22;2689;50.954;7.116;2023-05-07T07:31:51;20.40;99.90
5334;DHT22;2689;50.954;7.116;2023-05-07T07:34:17;21.10;99.90
5334;DHT22;2689;50.954;7.116;2023-05-07T07:36:44;20.80;99.30
5334;DHT22;2689;50.954;7.116;2023-05-07T07:39:12;20.90;99.00
5334;DHT22;2689;50.954;7.116;2023-05-07T07:41:39;20.90;98.50
5334;DHT22;2689;50.954;7.116;2023-05-07T07:44:06;21.10;98.80
5334;DHT22;2689;50.954;7.116;2023-05-07T07:46:34;21.20;98.60
5334;DHT22;2689;50.954;7.116;2023-05-07T07:49:01;21.30;97.30
5334;DHT22;2689;50.954;7.116;2023-05-07T07:51:27;21.50;97.50
5334;DHT22;2689;50.954;7.116;2023-05-07T07:53:54;22.00;96.70
5334;DHT22;2689;50.954;7.116;2023-05-07T07:56:25;22.00;95.20
5334;DHT22;2689;50.954;7.116;2023-05-07T07:58:51;22.20;94.30
5334;DHT22;2689;50.954;7.116;2023-05-07T08:01:18;22.70;94.50
5334;DHT22;2689;50.954;7.116;2023-05-07T08:03:45;22.80;94.80
5334;DHT22;2689;50.954;7.116;2023-05-07T08:06:12;23.60;93.10
5334;DHT22;2689;50.954;7.116;2023-05-07T08:08:39;24.60;91.40
5334;DHT22;2689;50.954;7.116;2023-05-07T08:11:06;25.50;89.60
5334;DHT22;2689;50.954;7.116;2023-05-07T08:13:34;26.40;84.10
5334;DHT22;2689;50.954;7.116;2023-05-07T08:16:01;26.90;80.30
5334;DHT22;2689;50.954;7.116;2023-05-07T08:18:27;27.50;77.20
5334;DHT22;2689;50.954;7.116;2023-05-07T08:20:54;27.90;73.80
5334;DHT22;2689;50.954;7.116;2023-05-07T08:23:21;28.00;72.40
5334;DHT22;2689;50.954;7.116;2023-05-07T08:25:48;28.00;71.80
5334;DHT22;2689;50.954;7.116;2023-05-07T08:28:15;28.00;69.90
5334;DHT22;2689;50.954;7.116;2023-05-07T08:30:44;28.20;69.70
5334;DHT22;2689;50.954;7.116;2023-05-07T08:33:10;28.30;69.00
5334;DHT22;2689;50.954;7.116;2023-05-07T08:35:37;28.90;69.50
5334;DHT22;2689;50.954;7.116;2023-05-07T08:38:04;30.40;66.80
5334;DHT22;2689;50.954;7.116;2023-05-07T08:40:36;30.80;66.00
5334;DHT22;2689;50.954;7.116;2023-05-07T08:43:05;31.30;62.10
5334;DHT22;2689;50.954;7.116;2023-05-07T08:45:34;31.60;58.40
5334;DHT22;2689;50.954;7.116;2023-05-07T08:48:15;31.60;58.10
5334;DHT22;2689;50.954;7.116;2023-05-07T08:50:42;31.50;57.50
5334;DHT22;2689;50.954;7.116;2023-05-07T08:53:09;30.60;56.10
5334;DHT22;2689;50.954;7.116;2023-05-07T08:55:35;29.40;57.90
5334;DHT22;2689;50.954;7.116;2023-05-07T08:58:03;28.10;61.40
5334;DHT22;2689;50.954;7.116;2023-05-07T09:00:30;27.40;65.40
5334;DHT22;2689;50.954;7.116;2023-05-07T09:02:56;26.80;66.10
5334;DHT22;2689;50.954;7.116;2023-05-07T09:05:24;26.30;67.80
5334;DHT22;2689;50.954;7.116;2023-05-07T09:07:51;25.80;68.20
5334;DHT22;2689;50.954;7.116;2023-05-07T09:10:19;25.60;68.80
5334;DHT22;2689;50.954;7.116;2023-05-07T09:12:47;25.50;68.80
5334;DHT22;2689;50.954;7.116;2023-05-07T09:15:14;25.30;70.00
5334;DHT22;2689;50.954;7.116;2023-05-07T09:17:41;25.30;70.90
5334;DHT22;2689;50.954;7.116;2023-05-07T09:20:08;25.60;72.40
5334;DHT22;2689;50.954;7.116;2023-05-07T09:22:37;26.30;72.70
5334;DHT22;2689;50.954;7.116;2023-05-07T09:25:05;27.50;69.40
5334;DHT22;2689;50.954;7.116;2023-05-07T09:27:33;29.20;62.90
5334;DHT22;2689;50.954;7.116;2023-05-07T09:30:03;30.20;58.00
5334;DHT22;2689;50.954;7.116;2023-05-07T09:32:30;30.30;57.20
5334;DHT22;2689;50.954;7.116;2023-05-07T09:34:57;30.10;57.90
5334;DHT22;2689;50.954;7.116;2023-05-07T09:37:26;30.20;57.60
5334;DHT22;2689;50.954;7.116;2023-05-07T09:39:54;30.90;55.90
5334;DHT22;2689;50.954;7.116;2023-05-07T09:42:23;31.10;55.10
5334;DHT22;2689;50.954;7.116;2023-05-07T09:44:52;31.70;56.30
5334;DHT22;2689;50.954;7.116;2023-05-07T09:47:19;33.30;55.30
5334;DHT22;2689;50.954;7.116;2023-05-07T09:49:48;34.20;51.40
5334;DHT22;2689;50.954;7.116;2023-05-07T09:52:15;34.20;49.60
5334;DHT22;2689;50.954;7.116;2023-05-07T09:54:43;33.60;49.00
5334;DHT22;2689;50.954;7.116;2023-05-07T09:57:11;33.20;50.20
5334;DHT22;2689;50.954;7.116;2023-05-07T09:59:42;32.80;50.20
5334;DHT22;2689;50.954;7.116;2023-05-07T10:02:10;32.50;49.90
5334;DHT22;2689;50.954;7.116;2023-05-07T10:04:37;32.10;51.40
5334;DHT22;2689;50.954;7.116;2023-05-07T10:07:04;36.10;52.10
5334;DHT22;2689;50.954;7.116;2023-05-07T10:09:32;32.90;50.30
5334;DHT22;2689;50.954;7.116;2023-05-07T10:12:02;33.10;48.60
5334;DHT22;2689;50.954;7.116;2023-05-07T10:14:33;33.10;49.50
5334;DHT22;2689;50.954;7.116;2023-05-07T10:17:02;32.60;49.80
5334;DHT22;2689;50.954;7.116;2023-05-07T10:19:29;33.00;49.60
5334;DHT22;2689;50.954;7.116;2023-05-07T10:22:01;33.00;48.80
5334;DHT22;2689;50.954;7.116;2023-05-07T10:24:32;32.20;48.50
5334;DHT22;2689;50.954;7.116;2023-05-07T10:27:02;31.00;49.70
5334;DHT22;2689;50.954;7.116;2023-05-07T10:29:36;30.00;52.20
5334;DHT22;2689;50.954;7.116;2023-05-07T10:32:24;32.50;57.70
5334;DHT22;2689;50.954;7.116;2023-05-07T10:34:55;28.90;53.80
5334;DHT22;2689;50.954;7.116;2023-05-07T10:37:22;28.30;54.60
5334;DHT22;2689;50.954;7.116;2023-05-07T10:39:50;27.90;55.80
5334;DHT22;2689;50.954;7.116;2023-05-07T10:42:17;27.90;56.80
5334;DHT22;2689;50.954;7.116;2023-05-07T10:44:46;26.60;57.00
5334;DHT22;2689;50.954;7.116;2023-05-07T10:47:14;28.80;59.50
5334;DHT22;2689;50.954;7.116;2023-05-07T10:50:23;27.00;61.20
5334;DHT22;2689;50.954;7.116;2023-05-07T10:53:20;27.00;59.40
5334;DHT22;2689;50.954;7.116;2023-05-07T10:55:51;28.60;58.30
5334;DHT22;2689;50.954;7.116;2023-05-07T10:58:24;30.20;54.80
5334;DHT22;2689;50.954;7.116;2023-05-07T11:00:58;32.40;52.70
5334;DHT22;2689;50.954;7.116;2023-05-07T11:03:26;34.80;49.60
5334;DHT22;2689;50.954;7.116;2023-05-07T11:06:12;33.60;46.40
5334;DHT22;2689;50.954;7.116;2023-05-07T11:08:54;34.40;45.40
5334;DHT22;2689;50.954;7.116;2023-05-07T11:11:44;34.60;43.90
5334;DHT22;2689;50.954;7.116;2023-05-07T11:14:11;34.50;44.10
5334;DHT22;2689;50.954;7.116;2023-05-07T11:16:41;33.90;42.40
5334;DHT22;2689;50.954;7.116;2023-05-07T11:19:08;33.70;44.70
5334;DHT22;2689;50.954;7.116;2023-05-07T11:21:35;37.10;47.90
5334;DHT22;2689;50.954;7.116;2023-05-07T11:24:03;33.40;43.80
5334;DHT22;2689;50.954;7.116;2023-05-07T11:26:41;33.40;45.80
5334;DHT22;2689;50.954;7.116;2023-05-07T11:29:11;32.90;44.40
5334;DHT22;2689;50.954;7.116;2023-05-07T11:31:39;32.70;46.10
5334;DHT22;2689;50.954;7.116;2023-05-07T11:34:06;32.60;47.00
5334;DHT22;2689;50.954;7.116;2023-05-07T11:36:34;32.60;47.10
5334;DHT22;2689;50.954;7.116;2023-05-07T11:39:00;32.20;46.10
5334;DHT22;2689;50.954;7.116;2023-05-07T11:41:38;32.10;46.90
5334;DHT22;2689;50.954;7.116;2023-05-07T11:44:09;33.20;47.40
5334;DHT22;2689;50.954;7.116;2023-05-07T11:46:36;33.10;44.10
5334;DHT22;2689;50.954;7.116;2023-05-07T11:49:04;32.90;43.00
5334;DHT22;2689;50.954;7.116;2023-05-07T11:51:32;34.70;45.90
5334;DHT22;2689;50.954;7.116;2023-05-07T11:53:59;34.00;46.10
5334;DHT22;2689;50.954;7.116;2023-05-07T11:56:25;32.20;46.50
5334;DHT22;2689;50.954;7.116;2023-05-07T11:58:52;31.90;45.60
5334;DHT22;2689;50.954;7.116;2023-05-07T12:01:22;31.30;48.60
5334;DHT22;2689;50.954;7.116;2023-05-07T12:03:49;30.90;47.90
5334;DHT22;2689;50.954;7.116;2023-05-07T12:06:17;30.70;51.40
5334;DHT22;2689;50.954;7.116;2023-05-07T12:08:45;30.10;49.70
5334;DHT22;2689;50.954;7.116;2023-05-07T12:11:16;29.80;50.30
5334;DHT22;2689;50.954;7.116;2023-05-07T12:13:48;29.30;49.70
5334;DHT22;2689;50.954;7.116;2023-05-07T12:16:15;28.30;50.50
5334;DHT22;2689;50.954;7.116;2023-05-07T12:18:42;27.80;51.00
5334;DHT22;2689;50.954;7.116;2023-05-07T12:21:11;27.30;53.00
5334;DHT22;2689;50.954;7.116;2023-05-07T12:23:40;26.90;53.50
5334;DHT22;2689;50.954;7.116;2023-05-07T12:26:06;27.40;53.70
5334;DHT22;2689;50.954;7.116;2023-05-07T12:28:38;26.10;52.90
5334;DHT22;2689;50.954;7.116;2023-05-07T12:31:05;26.00;53.70
5334;DHT22;2689;50.954;7.116;2023-05-07T12:33:32;27.90;54.60
5334;DHT22;2689;50.954;7.116;2023-05-07T12:36:04;25.80;52.70
5334;DHT22;2689;50.954;7.116;2023-05-07T12:38:42;25.70;53.10
5334;DHT22;2689;50.954;7.116;2023-05-07T12:41:09;25.30;54.10
5334;DHT22;2689;50.954;7.116;2023-05-07T12:43:37;26.70;55.50
5334;DHT22;2689;50.954;7.116;2023-05-07T12:46:05;27.90;56.90
5334;DHT22;2689;50.954;7.116;2023-05-07T12:48:33;25.20;55.50
5334;DHT22;2689;50.954;7.116;2023-05-07T12:51:01;25.20;56.00
5334;DHT22;2689;50.954;7.116;2023-05-07T12:53:29;24.90;56.20
5334;DHT22;2689;50.954;7.116;2023-05-07T12:55:58;25.20;57.90
5334;DHT22;2689;50.954;7.116;2023-05-07T12:58:27;25.20;57.50
5334;DHT22;2689;50.954;7.116;2023-05-07T13:00:55;25.10;58.00
5334;DHT22;2689;50.954;7.116;2023-05-07T13:03:25;25.10;56.40
5334;DHT22;2689;50.954;7.116;2023-05-07T13:05:53;25.10;58.10
5334;DHT22;2689;50.954;7.116;2023-05-07T13:08:25;25.10;59.90
5334;DHT22;2689;50.954;7.116;2023-05-07T13:10:52;24.90;59.50
5334;DHT22;2689;50.954;7.116;2023-05-07T13:13:21;24.90;59.60
5334;DHT22;2689;50.954;7.116;2023-05-07T13:15:48;24.80;60.30
5334;DHT22;2689;50.954;7.116;2023-05-07T13:18:15;24.90;60.10
5334;DHT22;2689;50.954;7.116;2023-05-07T13:20:47;24.80;59.70
5334;DHT22;2689;50.954;7.116;2023-05-07T13:23:14;24.80;62.80
5334;DHT22;2689;50.954;7.116;2023-05-07T13:25:41;24.80;68.40
5334;DHT22;2689;50.954;7.116;2023-05-07T13:28:08;26.10;65.10
5334;DHT22;2689;50.954;7.116;2023-05-07T13:30:38;24.60;64.40
5334;DHT22;2689;50.954;7.116;2023-05-07T13:33:11;25.30;64.20
5334;DHT22;2689;50.954;7.116;2023-05-07T13:35:38;24.70;65.90
5334;DHT22;2689;50.954;7.116;2023-05-07T13:38:05;28.10;67.50
5334;DHT22;2689;50.954;7.116;2023-05-07T13:40:32;24.70;62.90
5334;DHT22;2689;50.954;7.116;2023-05-07T13:42:59;24.50;64.70
5334;DHT22;2689;50.954;7.116;2023-05-07T13:45:27;24.60;64.50
5334;DHT22;2689;50.954;7.116;2023-05-07T13:47:56;24.50;63.10
5334;DHT22;2689;50.954;7.116;2023-05-07T13:50:23;24.30;64.40
5334;DHT22;2689;50.954;7.116;2023-05-07T13:52:52;24.20;65.10
5334;DHT22;2689;50.954;7.116;2023-05-07T13:55:19;24.30;62.50
5334;DHT22;2689;50.954;7.116;2023-05-07T13:57:46;24.10;62.50
5334;DHT22;2689;50.954;7.116;2023-05-07T14:00:14;23.80;64.90
5334;DHT22;2689;50.954;7.116;2023-05-07T14:02:42;23.90;68.40
5334;DHT22;2689;50.954;7.116;2023-05-07T14:05:10;23.60;67.90
5334;DHT22;2689;50.954;7.116;2023-05-07T14:07:48;23.10;67.10
5334;DHT22;2689;50.954;7.116;2023-05-07T14:10:17;23.60;71.90
5334;DHT22;2689;50.954;7.116;2023-05-07T14:12:45;23.20;77.80
5334;DHT22;2689;50.954;7.116;2023-05-07T14:15:12;22.70;85.10
5334;DHT22;2689;50.954;7.116;2023-05-07T14:17:43;21.80;90.80
5334;DHT22;2689;50.954;7.116;2023-05-07T14:20:15;21.20;94.70
5334;DHT22;2689;50.954;7.116;2023-05-07T14:22:42;20.30;99.90
5334;DHT22;2689;50.954;7.116;2023-05-07T14:25:09;19.10;99.90
5334;DHT22;2689;50.954;7.116;2023-05-07T14:27:36;18.30;99.90
5334;DHT22;2689;50.954;7.116;2023-05-07T14:30:04;18.60;99.90
5334;DHT22;2689;50.954;7.116;2023-05-07T14:32:31;19.20;99.90
5334;DHT22;2689;50.954;7.116;2023-05-07T14:34:58;17.70;99.90
5334;DHT22;2689;50.954;7.116;2023-05-07T14:37:26;18.50;99.90
5334;DHT22;2689;50.954;7.116;2023-05-07T14:39:53;17.70;99.90
5334;DHT22;2689;50.954;7.116;2023-05-07T14:42:20;17.70;99.90
5334;DHT22;2689;50.954;7.116;2023-05-07T14:44:46;17.80;99.90
5334;DHT22;2689;50.954;7.116;2023-05-07T14:47:13;17.60;99.90
5334;DHT22;2689;50.954;7.116;2023-05-07T14:49:41;17.80;99.90
5334;DHT22;2689;50.954;7.116;2023-05-07T14:52:08;17.60;99.90
5334;DHT22;2689;50.954;7.116;2023-05-07T14:54:37;17.60;99.90
5334;DHT22;2689;50.954;7.116;2023-05-07T14:57:05;18.00;99.90
5334;DHT22;2689;50.954;7.116;2023-05-07T14:59:32;17.40;99.90
5334;DHT22;2689;50.954;7.116;2023-05-07T15:02:00;18.60;99.90
5334;DHT22;2689;50.954;7.116;2023-05-07T15:04:41;17.60;99.90
5334;DHT22;2689;50.954;7.116;2023-05-07T15:07:11;17.60;99.90
5334;DHT22;2689;50.954;7.116;2023-05-07T15:09:42;17.90;99.90
5334;DHT22;2689;50.954;7.116;2023-05-07T15:12:08;17.30;99.90
5334;DHT22;2689;50.954;7.116;2023-05-07T15:14:36;17.50;99.90
5334;DHT22;2689;50.954;7.116;2023-05-07T15:17:03;18.00;99.90
5334;DHT22;2689;50.954;7.116;2023-05-07T15:19:30;17.40;99.90
5334;DHT22;2689;50.954;7.116;2023-05-07T15:21:58;18.60;99.90
5334;DHT22;2689;50.954;7.116;2023-05-07T15:24:29;17.40;99.90
5334;DHT22;2689;50.954;7.116;2023-05-07T15:26:57;17.30;99.90
5334;DHT22;2689;50.954;7.116;2023-05-07T15:29:24;17.20;99.90
5334;DHT22;2689;50.954;7.116;2023-05-07T15:31:51;17.40;99.90
5334;DHT22;2689;50.954;7.116;2023-05-07T15:34:18;17.50;99.90
5334;DHT22;2689;50.954;7.116;2023-05-07T15:36:45;17.30;99.90
5334;DHT22;2689;50.954;7.116;2023-05-07T15:39:11;17.10;99.90
5334;DHT22;2689;50.954;7.116;2023-05-07T15:41:38;17.50;99.90
5334;DHT22;2689;50.954;7.116;2023-05-07T15:44:06;17.30;99.90
5334;DHT22;2689;50.954;7.116;2023-05-07T15:46:33;17.70;99.90
5334;DHT22;2689;50.954;7.116;2023-05-07T15:49:01;17.40;99.90
5334;DHT22;2689;50.954;7.116;2023-05-07T15:51:28;17.40;99.90
5334;DHT22;2689;50.954;7.116;2023-05-07T15:53:56;19.50;99.90
5334;DHT22;2689;50.954;7.116;2023-05-07T15:56:23;18.10;99.90
5334;DHT22;2689;50.954;7.116;2023-05-07T15:58:50;17.50;99.90
5334;DHT22;2689;50.954;7.116;2023-05-07T16:01:19;17.50;99.90
5334;DHT22;2689;50.954;7.116;2023-05-07T16:03:46;17.70;99.90
5334;DHT22;2689;50.954;7.116;2023-05-07T16:06:12;17.90;99.90
5334;DHT22;2689;50.954;7.116;2023-05-07T16:08:39;18.00;99.90